»·PEaware :: SWA1885 KLAX-KELP

SWA1885 :: KLAX-KELP

FLIGHT INFORMATION

Flight Status: Arrived
Operator:
Southwest Airlines
More flights by this operator :: More flights under this callsign
Pilot: Andrew M. (139)
Aircraft: BOEING 737-800
(B738)
More flights by this aircraft type
Origin: KLAX Los Angeles Intl
United States
Destination: KELP El Paso Intl
United States
More flights between these airports :: More routes between these airports
Route: +DOTSS2 CNERY BLH J169 TFD ITEMM TEEES MOLLY4
File this flight plan on PilotEdge
Remarks: PBN / A1B1C1D1S1S2 NAV / RNVD1E2A1 REG / N608BT EET / KZAB0031 RMK / SIMBRIEF
Altitude:
(Current/Filed)
35,000ft
Speed:
(Current/Filed)
442kts
Departed: 12-Jan-19 07:31 PM
Arrived: 12-Jan-19 09:01 PM
Distance/Time
Traveled:
619nm/1:30
Distance/Time
To Go:
Arrived

Flight Plot

Page will automatically refresh every two minutes.

Flight plan parsing failed; only flown route is shown


Map Options




Map Legend


Flown Route
Filed Route
Departure Airport
Arrival Airport
Navaid (VOR, NDB)
Fix

Horizontal Profiles

Position Reports

Time Latitude Longitude Heading Altitude Ground
Speed
12-Jan-19 18:36 33.940058 -118.402324 37 119ft 0kts
12-Jan-19 18:37 33.940058 -118.402324 37 119ft 0kts
12-Jan-19 18:38 33.940058 -118.402324 37 119ft 0kts
12-Jan-19 18:39 33.940058 -118.402324 37 119ft 0kts
12-Jan-19 18:40 33.940058 -118.402324 37 119ft 0kts
12-Jan-19 18:41 33.940058 -118.402324 37 119ft 0kts
12-Jan-19 18:42 33.940058 -118.402324 37 119ft 0kts
12-Jan-19 18:43 33.940058 -118.402324 37 119ft 0kts
12-Jan-19 18:44 33.940058 -118.402324 37 119ft 0kts
12-Jan-19 18:45 33.940058 -118.402324 37 119ft 0kts
12-Jan-19 18:49 33.940058 -118.402324 37 119ft 0kts
12-Jan-19 18:50 33.940058 -118.402324 37 119ft 0kts
12-Jan-19 18:51 33.940058 -118.402324 37 119ft 0kts
12-Jan-19 18:52 33.940058 -118.402324 37 119ft 0kts
12-Jan-19 18:53 33.940058 -118.402324 37 119ft 0kts
12-Jan-19 18:54 33.940058 -118.402324 37 119ft 0kts
12-Jan-19 18:55 33.940058 -118.402324 37 119ft 0kts
12-Jan-19 18:56 33.940058 -118.402324 37 119ft 0kts
12-Jan-19 18:57 33.940058 -118.402324 37 119ft 0kts
12-Jan-19 18:58 33.940058 -118.402324 37 119ft 0kts
12-Jan-19 18:59 33.940058 -118.402324 37 119ft 0kts
12-Jan-19 19:00 33.940058 -118.402324 37 119ft 0kts
12-Jan-19 19:01 33.940058 -118.402324 37 119ft 0kts
12-Jan-19 19:02 33.940058 -118.402324 37 119ft 0kts
12-Jan-19 19:03 33.940058 -118.402324 37 119ft 0kts
12-Jan-19 19:04 33.940058 -118.402324 37 119ft 0kts
12-Jan-19 19:05 33.940058 -118.402324 37 119ft 0kts
12-Jan-19 19:06 33.940058 -118.402324 37 119ft 0kts
12-Jan-19 19:08 33.940058 -118.402324 37 119ft 0kts
12-Jan-19 19:09 33.940058 -118.402324 37 119ft 0kts
12-Jan-19 19:10 33.940058 -118.402324 37 119ft 0kts
12-Jan-19 19:11 33.940058 -118.402324 37 119ft 0kts
12-Jan-19 19:12 33.940058 -118.402324 37 119ft 0kts
12-Jan-19 19:13 33.940058 -118.402324 37 119ft 0kts
12-Jan-19 19:14 33.939952 -118.402842 118 119ft 2kts
12-Jan-19 19:15 33.940315 -118.403083 177 119ft 0kts
12-Jan-19 19:16 33.940315 -118.403083 177 119ft 0kts
12-Jan-19 19:17 33.940315 -118.403083 177 119ft 0kts
12-Jan-19 19:18 33.940315 -118.403083 177 119ft 0kts
12-Jan-19 19:19 33.940227 -118.403077 177 119ft 0kts
12-Jan-19 19:20 33.939170 -118.402951 171 119ft 5kts
12-Jan-19 19:21 33.938564 -118.402155 87 119ft 3kts
12-Jan-19 19:22 33.938820 -118.399580 83 115ft 12kts
12-Jan-19 19:23 33.939331 -118.394555 82 108ft 15kts
12-Jan-19 19:23 33.939801 -118.389994 83 103ft 17kts
12-Jan-19 19:25 33.940425 -118.383889 83 100ft 15kts
12-Jan-19 19:26 33.940716 -118.380810 95 99ft 0kts
12-Jan-19 19:27 33.940716 -118.380810 95 99ft 0kts
12-Jan-19 19:28 33.940716 -118.380810 95 99ft 0kts
12-Jan-19 19:29 33.940690 -118.380658 106 99ft 3kts
12-Jan-19 19:30 33.939801 -118.380721 256 99ft 2kts
12-Jan-19 19:30 33.938580 -118.392519 263 106ft 131kts
12-Jan-19 19:31 33.931510 -118.447933 260 1687ft 187kts
12-Jan-19 19:32 33.901714 -118.504865 227 3405ft 231kts
12-Jan-19 19:33 33.843399 -118.549644 184 5484ft 273kts
12-Jan-19 19:34 33.777800 -118.509270 121 8133ft 284kts
12-Jan-19 19:35 33.755792 -118.416661 101 10285ft 307kts
12-Jan-19 19:36 33.736821 -118.309720 101 12399ft 337kts
12-Jan-19 19:37 33.716795 -118.197539 101 15195ft 351kts
12-Jan-19 19:38 33.695862 -118.080924 100 17913ft 366kts
12-Jan-19 19:39 33.673573 -117.957376 101 19936ft 395kts
12-Jan-19 19:40 33.649159 -117.823015 101 21795ft 424kts
12-Jan-19 19:41 33.638118 -117.678393 87 23524ft 448kts
12-Jan-19 19:42 33.637552 -117.525592 87 25328ft 467kts
12-Jan-19 19:43 33.636786 -117.366312 87 27056ft 485kts
12-Jan-19 19:44 33.635902 -117.203134 88 28593ft 500kts
12-Jan-19 19:45 33.634721 -117.033321 88 30041ft 515kts
12-Jan-19 19:46 33.633227 -116.860497 89 31838ft 517kts
12-Jan-19 19:47 33.631506 -116.689159 89 33731ft 509kts
12-Jan-19 19:48 33.629550 -116.519883 89 35127ft 510kts
12-Jan-19 19:49 33.627299 -116.349041 90 35136ft 512kts
12-Jan-19 19:50 33.624906 -116.177161 90 35123ft 511kts
12-Jan-19 19:51 33.622285 -116.006584 90 35127ft 512kts
12-Jan-19 19:52 33.619397 -115.835987 90 35130ft 512kts
12-Jan-19 19:53 33.616253 -115.665559 90 35132ft 512kts
12-Jan-19 19:54 33.612838 -115.494102 90 35134ft 513kts
12-Jan-19 19:55 33.609187 -115.322634 91 35122ft 514kts
12-Jan-19 19:56 33.605447 -115.151066 92 35121ft 514kts
12-Jan-19 19:57 33.601462 -114.979966 92 35098ft 514kts
12-Jan-19 19:58 33.597226 -114.807831 92 35093ft 513kts
12-Jan-19 19:59 33.585599 -114.637373 98 35096ft 510kts
12-Jan-19 20:00 33.570160 -114.468308 98 35099ft 509kts
12-Jan-19 20:01 33.554668 -114.299486 98 35087ft 507kts
12-Jan-19 20:02 33.539162 -114.131379 99 35096ft 507kts
12-Jan-19 20:03 33.523413 -113.963416 99 35111ft 509kts
12-Jan-19 20:04 33.507319 -113.794758 99 35111ft 510kts
12-Jan-19 20:05 33.490908 -113.625705 99 35111ft 510kts
12-Jan-19 20:06 33.474206 -113.456349 99 35113ft 513kts
12-Jan-19 20:07 33.443981 -113.292893 120 35107ft 503kts
12-Jan-19 20:08 33.382305 -113.143026 121 35106ft 502kts
12-Jan-19 20:09 33.322298 -112.991506 121 35108ft 504kts
12-Jan-19 20:10 33.261968 -112.839877 121 35111ft 504kts
12-Jan-19 20:11 33.201473 -112.688611 121 35113ft 505kts
12-Jan-19 20:12 33.140708 -112.537359 121 35115ft 505kts
12-Jan-19 20:13 33.079556 -112.385850 121 35121ft 508kts
12-Jan-19 20:14 33.018324 -112.234544 122 35108ft 506kts
12-Jan-19 20:15 32.956718 -112.082943 122 35114ft 508kts
12-Jan-19 20:16 32.895223 -111.932285 122 35090ft 508kts
12-Jan-19 20:17 32.854542 -111.767671 108 35070ft 519kts
12-Jan-19 20:18 32.817594 -111.601341 109 35072ft 520kts
12-Jan-19 20:19 32.780243 -111.435534 109 35075ft 519kts
12-Jan-19 20:20 32.742695 -111.269749 110 35060ft 516kts
12-Jan-19 20:21 32.705112 -111.104540 110 35062ft 517kts
12-Jan-19 20:22 32.667291 -110.939433 110 35089ft 518kts
12-Jan-19 20:23 32.629209 -110.774359 110 35113ft 518kts
12-Jan-19 20:24 32.590868 -110.609390 109 35116ft 519kts
12-Jan-19 20:25 32.566475 -110.439532 101 35120ft 524kts
12-Jan-19 20:26 32.544965 -110.268594 102 35105ft 523kts
12-Jan-19 20:27 32.523087 -110.097510 102 35110ft 523kts
12-Jan-19 20:28 32.500987 -109.927478 102 35126ft 522kts
12-Jan-19 20:29 32.478624 -109.757848 102 35132ft 522kts
12-Jan-19 20:30 32.455812 -109.587214 102 35138ft 521kts
12-Jan-19 20:31 32.432959 -109.418170 102 35143ft 520kts
12-Jan-19 20:32 32.409913 -109.248905 103 35130ft 520kts
12-Jan-19 20:33 32.386825 -109.080590 103 35162ft 517kts
12-Jan-19 20:34 32.363569 -108.913019 103 35200ft 517kts
12-Jan-19 20:35 32.340108 -108.745831 103 35199ft 516kts
12-Jan-19 20:36 32.316409 -108.578908 103 35198ft 516kts
12-Jan-19 20:37 32.292464 -108.411898 103 35200ft 516kts
12-Jan-19 20:38 32.268797 -108.247504 102 35187ft 516kts
12-Jan-19 20:39 32.249529 -108.079151 100 34222ft 519kts
12-Jan-19 20:40 32.230152 -107.909240 100 32743ft 525kts
12-Jan-19 20:41 32.210318 -107.737694 100 30854ft 532kts
12-Jan-19 20:42 32.190205 -107.564324 100 28513ft 527kts
12-Jan-19 20:43 32.170374 -107.395194 101 25027ft 503kts
12-Jan-19 20:44 32.152039 -107.239606 102 21960ft 459kts
12-Jan-19 20:45 32.134938 -107.095910 102 19164ft 428kts
12-Jan-19 20:46 32.117063 -106.958184 107 16422ft 420kts
12-Jan-19 20:47 32.090648 -106.831342 121 13244ft 378kts
12-Jan-19 20:48 32.037531 -106.733035 108 10905ft 329kts
12-Jan-19 20:49 32.025193 -106.634050 98 10325ft 283kts
12-Jan-19 20:50 32.016940 -106.542591 96 9336ft 272kts
12-Jan-19 20:51 32.005485 -106.460207 107 8333ft 230kts
12-Jan-19 20:52 31.987539 -106.392151 107 7069ft 213kts
12-Jan-19 20:53 31.969471 -106.325714 108 7037ft 211kts
12-Jan-19 20:54 31.935948 -106.267102 140 6412ft 218kts
12-Jan-19 20:55 31.880841 -106.251726 178 5929ft 206kts
12-Jan-19 20:56 31.828554 -106.261842 190 5465ft 173kts
12-Jan-19 20:57 31.795446 -106.291663 273 5200ft 168kts
12-Jan-19 20:58 31.799924 -106.346231 272 4235ft 166kts
12-Jan-19 20:59 31.802042 -106.388307 273 3928ft 47kts
12-Jan-19 21:00 31.802077 -106.392018 210 3925ft 2kts
12-Jan-19 21:01 31.801231 -106.392432 210 3925ft 5kts

Navigation Log

Ident Type
Flight plan parsing failed, navigation log unavailable